AEE319 LGIR-LGAV
Flight info
| Callsign | AEE319 |
|---|---|
| Flight time | 0h 35m |
| Altitude | 24000 |
| Route | EPALO UM749 MIL L617 SOREV |
| Aircraft | A320/M-SDE3FGHIRWY/LB1 |
Departure
| Time | 2026-05-06 13:57 |
|---|---|
| Airport | Heraklion International Nikos Kazantzakis Airport (LGIR) |
Arrival
| Time | 2026-05-06 14:33 |
|---|---|
| Airport | Athens Eleftherios Venizelos International Airport (LGAV) |
| Time | Latitude | Longitude | Altitude | Speed | Heading |
|---|---|---|---|---|---|
| 2026-05-06 13:28 | 35.33861 | 25.17670 | 91 ft | 0 kts | 313° |
| 2026-05-06 13:53 | 35.33864 | 25.17667 | 91 ft | 1 kts | 325° |
| 2026-05-06 13:53 | 35.33871 | 25.17671 | 93 ft | 1 kts | 21° |
| 2026-05-06 13:53 | 35.33884 | 25.17689 | 92 ft | 7 kts | 55° |
| 2026-05-06 13:54 | 35.33890 | 25.17793 | 92 ft | 17 kts | 93° |
| 2026-05-06 13:54 | 35.33880 | 25.17946 | 92 ft | 18 kts | 94° |
| 2026-05-06 13:54 | 35.33870 | 25.18109 | 92 ft | 20 kts | 94° |
| 2026-05-06 13:54 | 35.33858 | 25.18274 | 93 ft | 20 kts | 95° |
| 2026-05-06 13:55 | 35.33845 | 25.18464 | 90 ft | 24 kts | 95° |
| 2026-05-06 13:55 | 35.33831 | 25.18666 | 90 ft | 20 kts | 95° |
| 2026-05-06 13:55 | 35.33820 | 25.18834 | 90 ft | 15 kts | 95° |
| 2026-05-06 13:55 | 35.33831 | 25.18947 | 90 ft | 14 kts | 63° |
| 2026-05-06 13:56 | 35.33848 | 25.18982 | 89 ft | 5 kts | 57° |
| 2026-05-06 13:56 | 35.33875 | 25.19037 | 89 ft | 9 kts | 58° |
| 2026-05-06 13:56 | 35.33907 | 25.19004 | 89 ft | 10 kts | 276° |
| 2026-05-06 13:56 | 35.33924 | 25.18780 | 90 ft | 60 kts | 275° |
| 2026-05-06 13:57 | 35.33982 | 25.17979 | 93 ft | 125 kts | 275° |
| 2026-05-06 13:57 | 35.34083 | 25.16723 | 213 ft | 161 kts | 277° |
| 2026-05-06 13:57 | 35.34212 | 25.15383 | 913 ft | 158 kts | 285° |
| 2026-05-06 13:57 | 35.34822 | 25.14325 | 1663 ft | 154 kts | 328° |
| 2026-05-06 13:58 | 35.35835 | 25.13857 | 2201 ft | 164 kts | 344° |
| 2026-05-06 13:58 | 35.36993 | 25.13462 | 2586 ft | 181 kts | 343° |
| 2026-05-06 13:58 | 35.38270 | 25.13019 | 2975 ft | 202 kts | 343° |
| 2026-05-06 13:58 | 35.39699 | 25.12516 | 3385 ft | 227 kts | 343° |
| 2026-05-06 13:59 | 35.41303 | 25.11944 | 3865 ft | 252 kts | 343° |
| 2026-05-06 13:59 | 35.43024 | 25.11328 | 4661 ft | 262 kts | 343° |
| 2026-05-06 13:59 | 35.44796 | 25.10693 | 5593 ft | 267 kts | 343° |
| 2026-05-06 13:59 | 35.46593 | 25.10048 | 6577 ft | 271 kts | 343° |
| 2026-05-06 14:00 | 35.48408 | 25.09395 | 7518 ft | 273 kts | 343° |
| 2026-05-06 14:00 | 35.50234 | 25.08736 | 8472 ft | 275 kts | 343° |
| 2026-05-06 14:00 | 35.52075 | 25.08070 | 9424 ft | 277 kts | 343° |
| 2026-05-06 14:00 | 35.53932 | 25.07400 | 10319 ft | 280 kts | 343° |
| 2026-05-06 14:01 | 35.55876 | 25.06699 | 10671 ft | 303 kts | 343° |
| 2026-05-06 14:01 | 35.57974 | 25.05943 | 10929 ft | 325 kts | 343° |
| 2026-05-06 14:01 | 35.60182 | 25.05149 | 11501 ft | 334 kts | 343° |
| 2026-05-06 14:01 | 35.62429 | 25.04339 | 12225 ft | 339 kts | 343° |
| 2026-05-06 14:02 | 35.64672 | 25.03526 | 12955 ft | 342 kts | 342° |
| 2026-05-06 14:02 | 35.66966 | 25.02690 | 13686 ft | 346 kts | 342° |
| 2026-05-06 14:02 | 35.69285 | 25.01847 | 14365 ft | 349 kts | 342° |
| 2026-05-06 14:02 | 35.71554 | 25.01019 | 15010 ft | 351 kts | 341° |
| 2026-05-06 14:03 | 35.73877 | 25.00062 | 15687 ft | 353 kts | 339° |
| 2026-05-06 14:03 | 35.76182 | 24.99005 | 16353 ft | 354 kts | 338° |
| 2026-05-06 14:03 | 35.78485 | 24.97892 | 16991 ft | 357 kts | 337° |
| 2026-05-06 14:03 | 35.80801 | 24.96755 | 17645 ft | 359 kts | 337° |
| 2026-05-06 14:04 | 35.83131 | 24.95616 | 18295 ft | 362 kts | 337° |
| 2026-05-06 14:04 | 35.85475 | 24.94486 | 18879 ft | 365 kts | 337° |
| 2026-05-06 14:04 | 35.87853 | 24.93355 | 19453 ft | 368 kts | 338° |
| 2026-05-06 14:04 | 35.90233 | 24.92232 | 20032 ft | 370 kts | 338° |
| 2026-05-06 14:05 | 35.92660 | 24.91088 | 20617 ft | 373 kts | 338° |
| 2026-05-06 14:05 | 35.95093 | 24.89941 | 21181 ft | 376 kts | 338° |
| 2026-05-06 14:05 | 35.97546 | 24.88787 | 21721 ft | 378 kts | 338° |
| 2026-05-06 14:05 | 36.00010 | 24.87625 | 22255 ft | 381 kts | 338° |
| 2026-05-06 14:06 | 36.02475 | 24.86461 | 22774 ft | 383 kts | 338° |
| 2026-05-06 14:06 | 36.04972 | 24.85281 | 23294 ft | 386 kts | 338° |
| 2026-05-06 14:06 | 36.07488 | 24.84089 | 23782 ft | 388 kts | 338° |
| 2026-05-06 14:06 | 36.10009 | 24.82892 | 24031 ft | 389 kts | 338° |
| 2026-05-06 14:07 | 36.12540 | 24.81689 | 24092 ft | 389 kts | 338° |
| 2026-05-06 14:07 | 36.15033 | 24.80505 | 24111 ft | 390 kts | 338° |
| 2026-05-06 14:07 | 36.17581 | 24.79295 | 24510 ft | 393 kts | 338° |
| 2026-05-06 14:07 | 36.20143 | 24.78080 | 24955 ft | 395 kts | 338° |
| 2026-05-06 14:08 | 36.22720 | 24.76858 | 25376 ft | 398 kts | 338° |
| 2026-05-06 14:08 | 36.25309 | 24.75631 | 25787 ft | 400 kts | 338° |
| 2026-05-06 14:08 | 36.27918 | 24.74393 | 26044 ft | 402 kts | 338° |
| 2026-05-06 14:08 | 36.30538 | 24.73149 | 26100 ft | 406 kts | 338° |
| 2026-05-06 14:09 | 36.33181 | 24.71890 | 26098 ft | 408 kts | 338° |
| 2026-05-06 14:09 | 36.35842 | 24.70621 | 26097 ft | 409 kts | 338° |
| 2026-05-06 14:09 | 36.38477 | 24.69364 | 26096 ft | 409 kts | 338° |
| 2026-05-06 14:09 | 36.41107 | 24.68109 | 26098 ft | 410 kts | 338° |
| 2026-05-06 14:10 | 36.43759 | 24.66840 | 26096 ft | 410 kts | 338° |
| 2026-05-06 14:10 | 36.46419 | 24.65564 | 26098 ft | 410 kts | 338° |
| 2026-05-06 14:10 | 36.49079 | 24.64287 | 26099 ft | 409 kts | 338° |
| 2026-05-06 14:10 | 36.51731 | 24.63012 | 26099 ft | 409 kts | 338° |
| 2026-05-06 14:11 | 36.54387 | 24.61738 | 26099 ft | 409 kts | 338° |
| 2026-05-06 14:11 | 36.57042 | 24.60467 | 26104 ft | 409 kts | 338° |
| 2026-05-06 14:11 | 36.59698 | 24.59195 | 26099 ft | 409 kts | 338° |
| 2026-05-06 14:11 | 36.62352 | 24.57923 | 26098 ft | 409 kts | 338° |
| 2026-05-06 14:12 | 36.65004 | 24.56649 | 26105 ft | 409 kts | 338° |
| 2026-05-06 14:12 | 36.67658 | 24.55371 | 26093 ft | 409 kts | 337° |
| 2026-05-06 14:12 | 36.70271 | 24.54110 | 26094 ft | 409 kts | 337° |
| 2026-05-06 14:12 | 36.72961 | 24.52812 | 26101 ft | 409 kts | 337° |
| 2026-05-06 14:13 | 36.75663 | 24.51700 | 26103 ft | 410 kts | 345° |
| 2026-05-06 14:13 | 36.78326 | 24.50974 | 26100 ft | 410 kts | 346° |
| 2026-05-06 14:13 | 36.81116 | 24.50222 | 26099 ft | 410 kts | 346° |
| 2026-05-06 14:13 | 36.83907 | 24.49468 | 26095 ft | 410 kts | 346° |
| 2026-05-06 14:14 | 36.86689 | 24.48714 | 25914 ft | 408 kts | 346° |
| 2026-05-06 14:14 | 36.89443 | 24.47965 | 25431 ft | 402 kts | 346° |
| 2026-05-06 14:14 | 36.92162 | 24.47223 | 24958 ft | 398 kts | 346° |
| 2026-05-06 14:14 | 36.94862 | 24.46488 | 24432 ft | 397 kts | 346° |
| 2026-05-06 14:15 | 36.97552 | 24.45758 | 23854 ft | 394 kts | 346° |
| 2026-05-06 14:15 | 37.00222 | 24.45031 | 23191 ft | 390 kts | 346° |
| 2026-05-06 14:15 | 37.02860 | 24.44310 | 22500 ft | 387 kts | 346° |
| 2026-05-06 14:15 | 37.05479 | 24.43595 | 21829 ft | 384 kts | 346° |
| 2026-05-06 14:16 | 37.08082 | 24.42886 | 21251 ft | 381 kts | 346° |
| 2026-05-06 14:16 | 37.10661 | 24.42185 | 20767 ft | 379 kts | 346° |
| 2026-05-06 14:16 | 37.13225 | 24.41488 | 20268 ft | 377 kts | 346° |
| 2026-05-06 14:16 | 37.15782 | 24.40794 | 19787 ft | 375 kts | 346° |
| 2026-05-06 14:17 | 37.18323 | 24.40102 | 19312 ft | 373 kts | 346° |
| 2026-05-06 14:17 | 37.20855 | 24.39411 | 18850 ft | 371 kts | 346° |
| 2026-05-06 14:17 | 37.23374 | 24.38723 | 18387 ft | 369 kts | 346° |
| 2026-05-06 14:17 | 37.25875 | 24.38039 | 17850 ft | 368 kts | 346° |
| 2026-05-06 14:18 | 37.28369 | 24.37355 | 17339 ft | 366 kts | 346° |
| 2026-05-06 14:18 | 37.30848 | 24.36687 | 16815 ft | 364 kts | 346° |
| 2026-05-06 14:18 | 37.33319 | 24.36048 | 16310 ft | 362 kts | 346° |
| 2026-05-06 14:18 | 37.35772 | 24.35383 | 15908 ft | 360 kts | 346° |
| 2026-05-06 14:19 | 37.38205 | 24.34703 | 15610 ft | 359 kts | 346° |
| 2026-05-06 14:19 | 37.40657 | 24.34017 | 15391 ft | 359 kts | 346° |
| 2026-05-06 14:19 | 37.43094 | 24.33346 | 15253 ft | 359 kts | 347° |
| 2026-05-06 14:19 | 37.45540 | 24.32730 | 14857 ft | 358 kts | 348° |
| 2026-05-06 14:20 | 37.47975 | 24.32161 | 14328 ft | 354 kts | 348° |
| 2026-05-06 14:20 | 37.50398 | 24.31616 | 13796 ft | 352 kts | 349° |
| 2026-05-06 14:20 | 37.52803 | 24.31077 | 13222 ft | 350 kts | 349° |
| 2026-05-06 14:20 | 37.55196 | 24.30534 | 12650 ft | 348 kts | 349° |
| 2026-05-06 14:21 | 37.57519 | 24.30000 | 11878 ft | 341 kts | 349° |
| 2026-05-06 14:21 | 37.59839 | 24.29457 | 10988 ft | 338 kts | 349° |
| 2026-05-06 14:21 | 37.62143 | 24.28913 | 10237 ft | 333 kts | 349° |
| 2026-05-06 14:21 | 37.64312 | 24.28399 | 10105 ft | 311 kts | 349° |
| 2026-05-06 14:22 | 37.66369 | 24.27913 | 9989 ft | 292 kts | 349° |
| 2026-05-06 14:22 | 37.68330 | 24.27451 | 9810 ft | 283 kts | 349° |
| 2026-05-06 14:22 | 37.70258 | 24.26996 | 9501 ft | 280 kts | 348° |
| 2026-05-06 14:22 | 37.72169 | 24.26544 | 9145 ft | 279 kts | 348° |
| 2026-05-06 14:23 | 37.74075 | 24.26093 | 8798 ft | 278 kts | 348° |
| 2026-05-06 14:23 | 37.75974 | 24.25644 | 8455 ft | 277 kts | 348° |
| 2026-05-06 14:23 | 37.77863 | 24.25198 | 8110 ft | 276 kts | 348° |
| 2026-05-06 14:23 | 37.79748 | 24.24753 | 7782 ft | 275 kts | 348° |
| 2026-05-06 14:24 | 37.81626 | 24.24311 | 7446 ft | 274 kts | 348° |
| 2026-05-06 14:24 | 37.83502 | 24.23868 | 7121 ft | 274 kts | 348° |
| 2026-05-06 14:24 | 37.85370 | 24.23427 | 6808 ft | 273 kts | 348° |
| 2026-05-06 14:24 | 37.87233 | 24.22989 | 6479 ft | 272 kts | 348° |
| 2026-05-06 14:25 | 37.89091 | 24.22551 | 6140 ft | 271 kts | 348° |
| 2026-05-06 14:25 | 37.90936 | 24.22115 | 5795 ft | 267 kts | 348° |
| 2026-05-06 14:25 | 37.92762 | 24.21684 | 5259 ft | 266 kts | 348° |
| 2026-05-06 14:25 | 37.94577 | 24.21254 | 4744 ft | 265 kts | 348° |
| 2026-05-06 14:26 | 37.96363 | 24.20829 | 4227 ft | 264 kts | 348° |
| 2026-05-06 14:26 | 37.98128 | 24.20411 | 4070 ft | 253 kts | 348° |
| 2026-05-06 14:26 | 37.99816 | 24.19993 | 3933 ft | 240 kts | 343° |
| 2026-05-06 14:26 | 38.01290 | 24.19132 | 3589 ft | 231 kts | 328° |
| 2026-05-06 14:27 | 38.02631 | 24.18047 | 3146 ft | 231 kts | 326° |
| 2026-05-06 14:27 | 38.03974 | 24.16926 | 2790 ft | 230 kts | 325° |
| 2026-05-06 14:27 | 38.05290 | 24.15833 | 2664 ft | 222 kts | 326° |
| 2026-05-06 14:27 | 38.06551 | 24.14771 | 2565 ft | 212 kts | 323° |
| 2026-05-06 14:28 | 38.07514 | 24.13446 | 2492 ft | 199 kts | 297° |
| 2026-05-06 14:28 | 38.07938 | 24.11818 | 2502 ft | 191 kts | 274° |
| 2026-05-06 14:28 | 38.07836 | 24.10170 | 2516 ft | 187 kts | 252° |
| 2026-05-06 14:28 | 38.07257 | 24.08714 | 2504 ft | 186 kts | 231° |
| 2026-05-06 14:29 | 38.06299 | 24.07627 | 2502 ft | 185 kts | 217° |
| 2026-05-06 14:29 | 38.05314 | 24.06686 | 2488 ft | 168 kts | 216° |
| 2026-05-06 14:29 | 38.04428 | 24.05838 | 2471 ft | 153 kts | 216° |
| 2026-05-06 14:29 | 38.03597 | 24.05044 | 2343 ft | 147 kts | 216° |
| 2026-05-06 14:30 | 38.02810 | 24.04293 | 2208 ft | 139 kts | 215° |
| 2026-05-06 14:30 | 38.02045 | 24.03562 | 2029 ft | 138 kts | 215° |
| 2026-05-06 14:30 | 38.01287 | 24.02838 | 1850 ft | 135 kts | 214° |
| 2026-05-06 14:30 | 38.00534 | 24.02120 | 1677 ft | 136 kts | 213° |
| 2026-05-06 14:31 | 37.99782 | 24.01403 | 1497 ft | 135 kts | 214° |
| 2026-05-06 14:31 | 37.99037 | 24.00692 | 1317 ft | 134 kts | 215° |
| 2026-05-06 14:31 | 37.98302 | 23.99991 | 1144 ft | 135 kts | 214° |
| 2026-05-06 14:31 | 37.97558 | 23.99281 | 964 ft | 134 kts | 215° |
| 2026-05-06 14:32 | 37.96821 | 23.98579 | 790 ft | 131 kts | 214° |
| 2026-05-06 14:32 | 37.96106 | 23.97898 | 609 ft | 127 kts | 218° |
| 2026-05-06 14:32 | 37.95404 | 23.97222 | 427 ft | 128 kts | 217° |
| 2026-05-06 14:32 | 37.94700 | 23.96556 | 304 ft | 120 kts | 217° |
| 2026-05-06 14:33 | 37.94231 | 23.96110 | 291 ft | 62 kts | 217° |
| 2026-05-06 14:33 | 37.93987 | 23.95878 | 285 ft | 39 kts | 217° |
| 2026-05-06 14:33 | 37.93854 | 23.95695 | 280 ft | 27 kts | 241° |
| 2026-05-06 14:33 | 37.93803 | 23.95542 | 292 ft | 12 kts | 258° |
| 2026-05-06 14:34 | 37.93826 | 23.95464 | 299 ft | 8 kts | 305° |
| 2026-05-06 14:34 | 37.93860 | 23.95405 | 299 ft | 14 kts | 306° |
| 2026-05-06 14:34 | 37.93929 | 23.95303 | 304 ft | 14 kts | 332° |
| 2026-05-06 14:34 | 37.93999 | 23.95333 | 301 ft | 5 kts | 37° |
| 2026-05-06 14:35 | 37.94002 | 23.95336 | 301 ft | 0 kts | 37° |